Time;durP1;ratioP1;P1;durP2;ratioP2;P2;SDS_P1;SDS_P2;PMS_P1;PMS_P2;Temp;Humidity;BMP_temperature;BMP_pressure;BME280_temperature;BME280_humidity;BME280_pressure;Samples;Min_cycle;Max_cycle;Signal;HPM_P1;HPM_P2
2022/01/13 00:01:32;;;;;;;178.93;26.98;;;5.20;99.90;;;;;;5011996;28;20038;-48
2022/01/13 00:03:59;;;;;;;217.43;27.15;;;5.20;99.90;;;;;;5011771;28;20033;-49
2022/01/13 00:06:25;;;;;;;200.30;27.02;;;5.20;99.90;;;;;;5011793;28;20033;-52
2022/01/13 00:08:50;;;;;;;149.85;24.77;;;5.20;99.90;;;;;;5011786;28;20049;-51
2022/01/13 00:11:16;;;;;;;245.57;27.80;;;5.30;99.90;;;;;;5011629;28;20120;-52
2022/01/13 00:19:05;;;;;;;204.15;26.98;;;5.20;99.90;;;;;;5011299;28;20081;-52
2022/01/13 00:21:36;;;;;;;171.68;25.95;;;5.20;99.90;;;;;;5011926;28;20038;-52
2022/01/13 00:24:04;;;;;;;189.90;25.63;;;5.20;99.90;;;;;;4993968;28;20639;-48
2022/01/13 00:26:32;;;;;;;141.48;23.80;;;5.20;99.90;;;;;;4994373;28;20387;-49
2022/01/13 00:29:02;;;;;;;126.20;24.92;;;5.20;99.90;;;;;;5011828;28;20417;-49
2022/01/13 00:31:31;;;;;;;205.15;26.55;;;5.20;99.90;;;;;;5011669;28;20045;-48
2022/01/13 00:33:58;;;;;;;141.57;24.80;;;5.20;99.90;;;;;;5011432;28;20406;-53
2022/01/13 00:36:30;;;;;;;139.50;25.38;;;5.20;99.90;;;;;;5012404;28;20466;-51
2022/01/13 00:38:59;;;;;;;222.10;27.40;;;5.20;99.90;;;;;;4994048;28;20053;-49
2022/01/13 00:41:29;;;;;;;259.90;27.65;;;5.20;99.90;;;;;;5009591;28;20456;-50
2022/01/13 00:44:02;;;;;;;258.27;26.98;;;5.30;99.90;;;;;;5011495;28;20449;-51
2022/01/13 00:46:38;;;;;;;216.27;25.42;;;5.20;99.90;;;;;;5011575;28;20045;-52
2022/01/13 00:49:04;;;;;;;193.95;25.38;;;5.20;99.90;;;;;;5014007;28;20117;-50
2022/01/13 00:51:29;;;;;;;209.30;24.05;;;5.20;99.90;;;;;;5011493;28;20125;-51
2022/01/13 00:54:02;;;;;;;182.77;24.00;;;5.20;99.90;;;;;;5011460;28;20443;-54
2022/01/13 00:56:27;;;;;;;185.85;24.80;;;5.20;99.90;;;;;;5011527;28;20516;-51
2022/01/13 00:58:53;;;;;;;170.55;22.95;;;5.20;99.90;;;;;;5012522;28;20121;-49
2022/01/13 01:01:18;;;;;;;221.00;24.95;;;5.20;99.90;;;;;;5013107;28;20044;-49
2022/01/13 01:03:44;;;;;;;140.40;23.17;;;5.20;99.90;;;;;;4995795;28;20050;-51
2022/01/13 01:06:09;;;;;;;165.55;24.02;;;5.10;99.90;;;;;;5010417;28;20072;-51
2022/01/13 01:08:35;;;;;;;198.73;25.73;;;5.20;99.90;;;;;;5015397;28;20034;-50
2022/01/13 01:11:03;;;;;;;239.45;23.85;;;5.20;99.90;;;;;;5015010;28;20053;-51
2022/01/13 01:13:32;;;;;;;167.55;23.52;;;5.10;99.90;;;;;;5014938;28;20605;-50
2022/01/13 01:16:01;;;;;;;238.13;26.88;;;5.20;99.90;;;;;;5015019;28;20549;-51
2022/01/13 01:18:40;;;;;;;208.27;25.85;;;5.20;99.90;;;;;;5015121;28;20116;-51
2022/01/13 01:23:41;;;;;;;154.82;23.00;;;5.10;99.90;;;;;;5008594;28;20046;-50
2022/01/13 01:26:22;;;;;;;240.32;24.92;;;5.20;99.90;;;;;;5014759;28;20049;-50
2022/01/13 01:28:56;;;;;;;163.77;22.67;;;5.20;99.90;;;;;;5014671;28;20044;-50
2022/01/13 01:31:28;;;;;;;173.85;21.40;;;5.20;99.90;;;;;;5014656;28;20336;-51
2022/01/13 01:36:25;;;;;;;160.65;21.90;;;5.20;99.90;;;;;;5014769;28;20046;-49
2022/01/13 01:38:53;;;;;;;169.65;20.73;;;5.20;99.90;;;;;;5021916;28;20050;-50
2022/01/13 01:41:18;;;;;;;148.05;22.65;;;5.20;99.90;;;;;;5034432;28;20448;-52
2022/01/13 01:43:44;;;;;;;132.43;19.25;;;5.20;99.90;;;;;;5016980;28;20050;-50
2022/01/13 01:46:10;;;;;;;186.10;22.08;;;5.20;99.90;;;;;;5014657;28;20069;-50
2022/01/13 01:48:36;;;;;;;119.63;18.95;;;5.20;99.90;;;;;;5014406;28;20485;-52
2022/01/13 01:51:04;;;;;;;177.80;23.25;;;5.20;99.90;;;;;;5013981;28;20092;-51
2022/01/13 01:53:30;;;;;;;158.00;21.98;;;5.20;99.90;;;;;;5014412;28;20112;-49
2022/01/13 01:55:56;;;;;;;163.02;21.23;;;5.20;99.90;;;;;;5000845;28;20042;-51
2022/01/13 01:58:22;;;;;;;218.43;22.23;;;5.20;99.90;;;;;;4996847;28;20116;-48
2022/01/13 02:00:48;;;;;;;169.27;20.92;;;5.20;99.90;;;;;;5024239;28;20044;-48
2022/01/13 02:03:15;;;;;;;142.48;20.80;;;5.20;99.90;;;;;;5016180;28;20033;-47
2022/01/13 02:05:41;;;;;;;187.48;21.85;;;5.20;99.90;;;;;;5013852;28;20038;-48
2022/01/13 02:08:07;;;;;;;205.70;22.17;;;5.20;99.90;;;;;;5014327;28;20092;-51
2022/01/13 02:10:33;;;;;;;150.80;21.50;;;5.20;99.90;;;;;;4995562;28;20132;-50
2022/01/13 02:13:05;;;;;;;126.88;20.77;;;5.20;99.90;;;;;;4994388;28;20045;-51
2022/01/13 02:15:34;;;;;;;154.07;20.38;;;5.20;99.90;;;;;;4994497;28;20043;-49
2022/01/13 02:18:04;;;;;;;143.13;20.65;;;5.20;99.90;;;;;;4994387;28;20034;-52
2022/01/13 02:20:47;;;;;;;153.38;20.90;;;5.20;99.90;;;;;;4994180;28;20410;-52
2022/01/13 02:23:12;;;;;;;123.07;19.98;;;5.20;99.90;;;;;;5005315;28;20041;-50
2022/01/13 02:25:38;;;;;;;165.18;20.88;;;5.20;99.90;;;;;;5013737;28;20042;-49
2022/01/13 02:28:04;;;;;;;156.20;20.90;;;5.20;99.90;;;;;;5013825;28;20070;-50
2022/01/13 02:30:29;;;;;;;124.35;19.88;;;5.20;99.90;;;;;;5013757;28;20513;-49
2022/01/13 02:32:55;;;;;;;180.63;22.40;;;5.20;99.90;;;;;;5013238;28;20050;-48
2022/01/13 02:35:20;;;;;;;245.52;23.98;;;5.20;99.90;;;;;;5013758;28;20041;-47
2022/01/13 02:37:46;;;;;;;135.23;20.50;;;5.20;99.90;;;;;;5020329;28;20401;-50
2022/01/13 02:40:12;;;;;;;136.32;20.08;;;5.20;99.90;;;;;;5021378;28;20546;-48
2022/01/13 02:42:37;;;;;;;184.55;21.67;;;5.20;99.90;;;;;;5012977;28;20506;-49
2022/01/13 02:45:14;;;;;;;264.05;23.10;;;5.20;99.90;;;;;;5013544;28;20038;-48
2022/01/13 02:50:13;;;;;;;153.27;21.02;;;5.10;99.90;;;;;;5013103;28;20050;-54
2022/01/13 02:52:39;;;;;;;140.13;21.27;;;5.20;99.90;;;;;;5013113;28;20077;-52
2022/01/13 02:55:06;;;;;;;216.20;22.00;;;5.10;99.90;;;;;;5013292;28;20038;-53
2022/01/13 02:57:32;;;;;;;143.32;20.08;;;5.20;99.90;;;;;;5013179;28;20243;-54
2022/01/13 02:59:59;;;;;;;212.73;23.98;;;5.10;99.90;;;;;;5013050;28;20048;-53
2022/01/13 03:02:30;;;;;;;151.20;20.42;;;5.20;99.90;;;;;;4986477;28;20518;-54
2022/01/13 03:04:55;;;;;;;202.40;23.10;;;5.10;99.90;;;;;;5011979;28;20042;-54
2022/01/13 03:07:22;;;;;;;164.65;22.52;;;5.10;99.90;;;;;;5012998;28;20040;-52
2022/01/13 03:09:48;;;;;;;127.47;19.35;;;5.10;99.90;;;;;;5013004;28;20049;-54
2022/01/13 03:12:13;;;;;;;170.30;20.88;;;5.10;99.90;;;;;;5012646;28;20042;-54
2022/01/13 03:14:39;;;;;;;158.52;21.70;;;5.10;99.90;;;;;;4997599;28;20041;-54
2022/01/13 03:17:05;;;;;;;145.43;19.23;;;5.10;99.90;;;;;;5013046;28;20041;-55
2022/01/13 03:19:31;;;;;;;107.15;18.33;;;5.00;99.90;;;;;;4978778;28;20042;-54
2022/01/13 03:21:57;;;;;;;189.13;21.00;;;5.10;99.90;;;;;;5012221;28;20490;-54
2022/01/13 03:24:22;;;;;;;121.45;18.65;;;5.00;99.90;;;;;;5012407;28;20042;-53
2022/01/13 03:26:49;;;;;;;136.13;19.35;;;5.00;99.90;;;;;;5012803;28;20037;-54
2022/01/13 03:29:16;;;;;;;132.55;18.63;;;5.00;99.90;;;;;;4995073;28;20121;-54
2022/01/13 03:31:44;;;;;;;192.38;20.98;;;5.00;99.90;;;;;;5010899;28;20088;-54
2022/01/13 03:34:11;;;;;;;181.77;21.55;;;5.00;99.90;;;;;;5000782;28;20041;-54
2022/01/13 03:36:37;;;;;;;142.63;20.20;;;5.00;99.90;;;;;;5024121;28;20033;-53
2022/01/13 03:39:05;;;;;;;131.80;19.85;;;5.00;99.90;;;;;;5032054;28;20045;-54
2022/01/13 03:41:31;;;;;;;119.70;16.88;;;5.00;99.90;;;;;;5031366;28;20107;-51
2022/01/13 03:43:59;;;;;;;133.80;18.40;;;5.00;99.90;;;;;;5008273;28;20034;-53
2022/01/13 03:46:25;;;;;;;156.55;18.48;;;5.00;99.90;;;;;;5011333;28;20042;-54
2022/01/13 03:48:51;;;;;;;140.65;17.73;;;5.00;99.90;;;;;;5006087;28;20077;-54
2022/01/13 03:51:17;;;;;;;153.13;20.50;;;4.90;99.90;;;;;;4976407;28;20093;-54
2022/01/13 03:54:13;;;;;;;133.02;18.02;;;5.30;99.90;;;;;;4979004;28;20050;-53
2022/01/13 03:56:42;;;;;;;119.20;16.70;;;4.90;99.90;;;;;;4994566;28;20042;-54
2022/01/13 03:59:31;;;;;;;130.85;18.67;;;5.00;99.90;;;;;;4993521;28;20510;-55
2022/01/13 04:02:07;;;;;;;106.35;16.73;;;5.00;99.90;;;;;;4963486;28;20065;-54
2022/01/13 04:04:47;;;;;;;135.60;17.90;;;4.90;99.90;;;;;;5011887;28;20080;-54
2022/01/13 04:07:22;;;;;;;117.75;18.35;;;5.00;99.90;;;;;;5012414;28;20042;-54
2022/01/13 04:09:48;;;;;;;158.85;18.55;;;5.00;99.90;;;;;;4998487;28;20034;-54
2022/01/13 04:12:15;;;;;;;122.75;18.40;;;5.00;99.90;;;;;;5011473;28;20037;-54
2022/01/13 04:17:08;;;;;;;113.47;17.92;;;4.90;99.90;;;;;;5011875;28;20419;-54
2022/01/13 04:19:34;;;;;;;109.65;15.98;;;4.90;99.90;;;;;;5011955;28;20491;-54
2022/01/13 04:21:59;;;;;;;101.30;17.52;;;5.00;99.90;;;;;;5011640;28;20034;-54
2022/01/13 04:24:25;;;;;;;115.57;18.00;;;5.00;99.90;;;;;;5012046;28;20113;-55
2022/01/13 04:26:53;;;;;;;109.38;18.10;;;5.00;99.90;;;;;;5011890;28;20117;-53
2022/01/13 04:29:28;;;;;;;109.50;18.95;;;4.90;99.90;;;;;;5011817;28;20152;-54
2022/01/13 04:31:53;;;;;;;90.65;16.90;;;4.90;99.90;;;;;;5011714;28;20046;-54
2022/01/13 04:34:20;;;;;;;113.68;17.02;;;4.90;99.90;;;;;;5010933;28;20041;-51
2022/01/13 04:36:46;;;;;;;117.07;18.80;;;4.90;99.90;;;;;;5012154;28;20038;-54
2022/01/13 04:39:16;;;;;;;90.20;17.30;;;4.90;99.90;;;;;;5011440;28;20037;-55
2022/01/13 04:41:44;;;;;;;112.93;17.88;;;4.90;99.90;;;;;;4977692;28;20072;-54
2022/01/13 04:44:16;;;;;;;101.80;17.15;;;4.90;99.90;;;;;;5007927;28;20036;-51
2022/01/13 04:46:41;;;;;;;100.25;18.75;;;5.00;99.90;;;;;;5011690;28;20107;-54
2022/01/13 04:49:07;;;;;;;78.82;16.33;;;4.90;99.90;;;;;;5013422;28;20041;-54
2022/01/13 04:51:34;;;;;;;112.20;18.48;;;4.90;99.90;;;;;;5013597;28;20084;-54
2022/01/13 04:53:59;;;;;;;110.57;19.15;;;4.90;99.90;;;;;;5010992;28;20493;-54
2022/01/13 04:58:54;;;;;;;109.18;17.20;;;4.90;99.90;;;;;;5010957;28;20322;-55
2022/01/13 05:01:19;;;;;;;105.63;18.00;;;4.90;99.90;;;;;;4993898;28;20069;-54
2022/01/13 05:03:45;;;;;;;126.03;18.00;;;4.90;99.90;;;;;;5011317;28;20081;-54
2022/01/13 05:06:12;;;;;;;93.15;17.30;;;4.80;99.90;;;;;;5011471;28;20038;-53
2022/01/13 05:08:39;;;;;;;80.07;16.23;;;4.90;99.90;;;;;;5011211;28;20095;-54
2022/01/13 05:11:05;;;;;;;94.75;16.98;;;4.90;99.90;;;;;;5011184;28;20516;-54
2022/01/13 05:13:30;;;;;;;78.97;16.73;;;4.90;99.90;;;;;;5011374;28;20037;-53
2022/01/13 05:15:56;;;;;;;94.95;16.17;;;4.80;99.90;;;;;;5011527;28;20061;-54
2022/01/13 05:18:50;;;;;;;84.95;16.13;;;4.80;99.90;;;;;;5011103;28;20034;-54
2022/01/13 05:21:24;;;;;;;81.40;16.52;;;4.80;99.90;;;;;;5011213;28;20041;-54
2022/01/13 05:23:52;;;;;;;71.63;15.52;;;4.80;99.90;;;;;;5010991;28;20069;-54
2022/01/13 05:26:25;;;;;;;80.88;16.65;;;4.80;99.90;;;;;;5011035;28;20117;-54
2022/01/13 05:28:51;;;;;;;127.57;17.77;;;4.80;99.90;;;;;;4993537;28;20125;-55
2022/01/13 05:31:16;;;;;;;101.05;16.35;;;4.80;99.90;;;;;;5011066;28;20148;-53
2022/01/13 05:33:42;;;;;;;102.28;16.52;;;4.80;99.90;;;;;;5009534;28;20046;-54
2022/01/13 05:36:08;;;;;;;102.07;17.75;;;4.80;99.90;;;;;;5010581;28;20045;-53
2022/01/13 05:38:33;;;;;;;102.07;17.85;;;4.70;99.90;;;;;;5009392;28;20386;-53
2022/01/13 05:40:59;;;;;;;93.38;17.33;;;4.70;99.90;;;;;;5011052;28;20407;-53
2022/01/13 05:43:25;;;;;;;104.85;17.35;;;4.70;99.90;;;;;;5010951;28;20183;-54
2022/01/13 05:45:51;;;;;;;106.03;17.58;;;4.80;99.90;;;;;;5012142;28;20194;-54
2022/01/13 05:48:17;;;;;;;93.95;17.50;;;4.70;99.90;;;;;;4994984;28;20402;-53
2022/01/13 05:50:42;;;;;;;89.43;17.75;;;4.70;99.90;;;;;;5028521;28;20049;-52
2022/01/13 05:53:08;;;;;;;105.40;18.25;;;4.70;99.90;;;;;;5033922;28;20045;-54
2022/01/13 05:55:34;;;;;;;122.70;20.08;;;4.70;99.90;;;;;;5026598;28;20048;-53
2022/01/13 05:58:00;;;;;;;102.30;19.42;;;4.70;99.90;;;;;;5014493;28;20126;-51
2022/01/13 06:00:26;;;;;;;104.07;18.52;;;4.70;99.90;;;;;;4996614;28;20045;-53
2022/01/13 06:02:52;;;;;;;87.15;17.25;;;4.70;99.90;;;;;;5013593;28;20042;-54
2022/01/13 06:05:19;;;;;;;108.18;17.90;;;4.70;99.90;;;;;;5016083;28;20120;-54
2022/01/13 06:07:45;;;;;;;96.35;17.00;;;4.70;99.90;;;;;;5024136;28;20041;-54
2022/01/13 06:10:18;;;;;;;96.03;17.20;;;4.70;99.90;;;;;;5014075;28;20046;-53
2022/01/13 06:12:44;;;;;;;;;;;4.70;99.90;;;;;;5014466;28;20503;-54
2022/01/13 06:15:12;;;;;;;109.65;18.65;;;4.70;99.90;;;;;;5014210;28;20031;-54
2022/01/13 06:17:39;;;;;;;121.95;18.95;;;4.70;99.90;;;;;;4993689;28;20060;-52
2022/01/13 06:20:07;;;;;;;101.72;17.73;;;4.70;99.90;;;;;;4999921;28;20030;-52
2022/01/13 06:22:32;;;;;;;97.22;18.00;;;4.70;99.90;;;;;;5001189;28;20034;-51
2022/01/13 06:24:58;;;;;;;112.03;19.27;;;4.70;99.90;;;;;;5009659;28;20037;-54
2022/01/13 06:27:24;;;;;;;110.03;19.35;;;4.70;99.90;;;;;;4966603;28;20030;-50
2022/01/13 06:29:51;;;;;;;133.07;19.73;;;4.70;99.90;;;;;;5003124;28;20057;-53
2022/01/13 06:32:17;;;;;;;135.90;19.65;;;4.70;99.90;;;;;;4998360;28;20038;-51
2022/01/13 06:34:43;;;;;;;115.15;18.88;;;4.70;99.90;;;;;;5006572;28;20038;-53
2022/01/13 06:37:08;;;;;;;138.30;19.92;;;4.70;99.90;;;;;;5009968;28;20387;-51
2022/01/13 06:39:34;;;;;;;117.13;19.27;;;4.70;99.90;;;;;;5007491;28;20077;-54
2022/01/13 06:42:00;;;;;;;115.07;20.38;;;4.70;99.90;;;;;;5001651;28;20038;-55
2022/01/13 06:44:25;;;;;;;133.85;19.65;;;4.70;99.90;;;;;;5004416;28;20041;-51
2022/01/13 06:46:51;;;;;;;125.18;20.38;;;4.70;99.90;;;;;;5013094;28;20041;-50
2022/01/13 06:49:16;;;;;;;140.65;18.88;;;4.70;99.90;;;;;;5013108;28;20045;-50
2022/01/13 06:51:42;;;;;;;120.47;19.85;;;4.70;99.90;;;;;;5004298;28;20052;-52
2022/01/13 06:54:07;;;;;;;128.98;19.45;;;4.70;99.90;;;;;;5004463;28;20505;-51
2022/01/13 06:56:33;;;;;;;127.35;19.70;;;4.70;99.90;;;;;;4993818;28;20045;-51
2022/01/13 06:58:59;;;;;;;137.38;19.20;;;4.70;99.90;;;;;;5013167;28;20573;-50
2022/01/13 07:01:25;;;;;;;121.93;19.45;;;4.70;99.90;;;;;;5013251;28;20119;-53
2022/01/13 07:03:51;;;;;;;108.00;19.67;;;4.70;99.90;;;;;;5013019;28;20050;-50
2022/01/13 07:06:17;;;;;;;147.57;21.10;;;4.70;99.90;;;;;;5013254;28;20034;-50
2022/01/13 07:08:42;;;;;;;130.55;19.85;;;4.70;99.90;;;;;;5013314;28;20049;-52
2022/01/13 07:11:08;;;;;;;130.20;20.65;;;4.70;99.90;;;;;;5013015;28;20042;-51
2022/01/13 07:13:34;;;;;;;131.50;19.75;;;4.70;99.90;;;;;;5012782;28;20056;-50
2022/01/13 07:16:01;;;;;;;217.52;22.90;;;4.70;99.90;;;;;;5007942;28;20066;-52
2022/01/13 07:18:27;;;;;;;151.65;20.50;;;4.70;99.90;;;;;;4997203;28;20376;-49
2022/01/13 07:20:53;;;;;;;141.40;20.58;;;4.70;99.90;;;;;;5002418;28;20108;-52
2022/01/13 07:23:19;;;;;;;130.65;20.67;;;4.70;99.90;;;;;;4996028;28;20037;-52
2022/01/13 07:25:44;;;;;;;139.65;21.08;;;4.70;99.90;;;;;;4999533;28;20034;-52
2022/01/13 07:28:10;;;;;;;114.00;20.20;;;4.70;99.90;;;;;;4998996;28;20037;-52
2022/01/13 07:30:36;;;;;;;138.57;21.13;;;4.70;99.90;;;;;;4997591;28;20038;-53
2022/01/13 07:33:01;;;;;;;157.38;20.20;;;4.70;99.90;;;;;;4997357;28;20037;-53
2022/01/13 07:35:27;;;;;;;129.32;22.00;;;4.70;99.90;;;;;;4999554;28;20037;-50
2022/01/13 07:37:53;;;;;;;131.18;21.83;;;4.70;99.90;;;;;;4999178;28;20116;-51
2022/01/13 07:40:18;;;;;;;148.75;21.02;;;4.70;99.90;;;;;;4999924;28;20025;-51
2022/01/13 07:42:46;;;;;;;129.13;20.00;;;4.70;99.90;;;;;;4999597;28;20030;-53
2022/01/13 07:45:13;;;;;;;135.48;21.52;;;4.70;99.90;;;;;;5001407;28;20030;-52
2022/01/13 07:47:39;;;;;;;147.13;20.52;;;4.70;99.90;;;;;;5012371;28;20041;-52
2022/01/13 07:50:07;;;;;;;143.13;22.20;;;4.70;99.90;;;;;;5012615;28;20494;-54
2022/01/13 07:52:32;;;;;;;133.13;22.08;;;4.70;99.90;;;;;;5012339;28;20489;-53
2022/01/13 07:54:58;;;;;;;124.95;21.02;;;4.70;99.90;;;;;;5012413;28;20077;-51
2022/01/13 07:57:23;;;;;;;159.45;21.85;;;4.60;99.90;;;;;;5012247;28;20116;-52
2022/01/13 07:59:49;;;;;;;130.73;20.38;;;4.70;99.90;;;;;;5012058;28;20050;-50
2022/01/13 08:02:15;;;;;;;138.43;20.98;;;4.70;99.90;;;;;;5011604;28;20129;-52
2022/01/13 08:04:41;;;;;;;150.07;21.58;;;4.70;99.90;;;;;;5010689;28;20061;-52
2022/01/13 08:07:06;;;;;;;117.28;18.70;;;4.70;99.90;;;;;;4985942;28;20088;-48
2022/01/13 08:09:32;;;;;;;101.30;18.35;;;4.70;99.90;;;;;;5006141;28;20499;-49
2022/01/13 08:11:57;;;;;;;101.97;18.67;;;4.70;99.90;;;;;;5004800;28;20103;-52
2022/01/13 08:14:23;;;;;;;119.28;20.20;;;4.70;99.90;;;;;;4988216;28;20164;-49
2022/01/13 08:16:50;;;;;;;90.78;17.27;;;4.70;99.90;;;;;;4971728;28;20053;-52
2022/01/13 08:22:00;;;;;;;91.50;18.35;;;4.80;99.90;;;;;;5001272;28;20153;-49
2022/01/13 08:24:25;;;;;;;102.85;18.73;;;4.70;99.90;;;;;;5004667;28;20469;-49
2022/01/13 08:26:51;;;;;;;86.07;19.90;;;4.70;99.90;;;;;;5005763;28;20117;-52
2022/01/13 08:29:16;;;;;;;102.10;19.00;;;4.80;99.90;;;;;;4989018;28;20058;-49
2022/01/13 08:31:42;;;;;;;119.47;20.08;;;4.80;99.90;;;;;;4999571;28;20065;-52
2022/01/13 08:34:07;;;;;;;98.78;18.23;;;4.80;99.90;;;;;;5006429;28;20041;-52
2022/01/13 08:36:33;;;;;;;93.03;18.05;;;4.80;99.90;;;;;;4989509;28;20052;-52
2022/01/13 08:38:59;;;;;;;97.45;19.42;;;4.80;99.90;;;;;;5005581;28;20481;-50
2022/01/13 08:41:24;;;;;;;115.50;20.20;;;4.80;99.90;;;;;;5006075;28;20034;-50
2022/01/13 08:43:52;;;;;;;91.45;17.67;;;4.80;99.90;;;;;;5007017;28;20505;-52
2022/01/13 08:46:17;;;;;;;80.80;18.27;;;4.80;99.90;;;;;;5012965;28;20478;-52
2022/01/13 08:48:43;;;;;;;84.82;18.85;;;4.90;99.90;;;;;;5011677;28;20044;-49
2022/01/13 08:51:08;;;;;;;100.30;19.85;;;4.80;99.90;;;;;;4995612;28;20050;-52
2022/01/13 08:53:34;;;;;;;104.63;18.40;;;4.90;99.90;;;;;;5007068;28;20050;-49
2022/01/13 08:56:00;;;;;;;87.20;20.58;;;4.90;99.90;;;;;;4975986;28;20048;-52
2022/01/13 08:58:26;;;;;;;97.72;20.02;;;4.90;99.90;;;;;;5010257;28;20042;-48
2022/01/13 09:00:53;;;;;;;112.22;19.92;;;4.90;99.90;;;;;;5015489;28;20052;-52
2022/01/13 09:03:19;;;;;;;113.43;20.63;;;4.90;99.90;;;;;;5022985;28;20252;-53
2022/01/13 09:05:44;;;;;;;104.53;19.63;;;5.00;99.90;;;;;;5030535;28;20517;-49
2022/01/13 09:08:11;;;;;;;100.00;20.45;;;5.00;99.90;;;;;;5023037;28;20037;-48
2022/01/13 09:10:41;;;;;;;103.72;21.15;;;5.00;99.90;;;;;;5031002;28;20045;-49
2022/01/13 09:13:11;;;;;;;97.70;19.88;;;5.00;99.90;;;;;;5030910;28;20048;-49
2022/01/13 09:15:43;;;;;;;98.65;20.55;;;5.00;99.90;;;;;;5032596;28;20037;-50
2022/01/13 09:18:11;;;;;;;134.68;21.80;;;5.00;99.90;;;;;;5031236;28;20037;-50
2022/01/13 09:20:39;;;;;;;117.78;21.15;;;5.00;99.90;;;;;;5015181;28;20525;-51
2022/01/13 09:23:05;;;;;;;100.22;19.52;;;5.00;99.90;;;;;;5026336;28;20033;-47
2022/01/13 09:25:31;;;;;;;114.03;21.02;;;5.10;99.90;;;;;;5016862;28;20120;-49
2022/01/13 09:27:56;;;;;;;103.82;19.73;;;5.10;99.90;;;;;;5034926;28;20061;-49
2022/01/13 09:30:23;;;;;;;140.05;22.45;;;5.10;99.90;;;;;;5000614;28;20056;-47
2022/01/13 09:32:49;;;;;;;162.23;21.88;;;5.10;99.90;;;;;;5034508;28;20042;-48
2022/01/13 09:35:14;;;;;;;111.20;20.42;;;5.10;99.90;;;;;;5034617;28;20060;-49
2022/01/13 09:37:40;;;;;;;107.63;19.15;;;5.20;99.90;;;;;;5023662;28;20026;-47
2022/01/13 09:40:10;;;;;;;118.70;21.55;;;5.20;99.90;;;;;;5029048;28;20410;-51
2022/01/13 09:42:39;;;;;;;147.50;21.33;;;5.20;99.90;;;;;;5034444;28;20077;-50
2022/01/13 09:45:06;;;;;;;88.10;20.30;;;5.20;99.90;;;;;;5034572;28;20107;-50
2022/01/13 09:47:33;;;;;;;108.78;21.15;;;5.20;99.90;;;;;;5032322;28;20042;-50
2022/01/13 09:50:01;;;;;;;150.63;21.83;;;5.20;99.90;;;;;;5008179;28;20033;-47
2022/01/13 09:52:27;;;;;;;129.73;21.02;;;5.30;99.90;;;;;;5014517;28;20089;-48
2022/01/13 09:54:53;;;;;;;107.88;18.90;;;5.30;99.90;;;;;;5010670;28;20669;-47
2022/01/13 09:57:18;;;;;;;116.13;20.08;;;5.30;99.90;;;;;;5001713;28;20467;-49
2022/01/13 09:59:44;;;;;;;122.18;21.95;;;5.30;99.90;;;;;;5015080;28;20042;-49
2022/01/13 10:02:10;;;;;;;132.18;21.05;;;5.30;99.90;;;;;;5029202;28;20075;-47
2022/01/13 10:04:51;;;;;;;115.13;21.50;;;5.30;99.90;;;;;;5034035;28;20033;-48
2022/01/13 10:07:31;;;;;;;145.70;21.67;;;5.30;99.90;;;;;;5033943;28;20456;-48
2022/01/13 10:10:00;;;;;;;99.47;20.00;;;5.30;99.90;;;;;;5033827;28;20449;-47
2022/01/13 10:12:36;;;;;;;96.18;20.17;;;5.30;99.90;;;;;;5033764;28;20056;-47
2022/01/13 10:17:59;;;;;;;100.10;19.23;;;5.30;99.90;;;;;;5033856;28;20056;-47
2022/01/13 10:20:25;;;;;;;115.00;20.27;;;5.30;99.90;;;;;;5033719;28;20467;-49
2022/01/13 10:22:53;;;;;;;109.05;20.52;;;5.30;99.90;;;;;;5033589;28;20033;-47
2022/01/13 10:25:35;;;;;;;91.53;19.35;;;5.40;99.90;;;;;;5033681;28;20034;-50
2022/01/13 10:28:14;;;;;;;93.38;18.10;;;5.30;99.90;;;;;;5025444;28;20125;-47
2022/01/13 10:30:41;;;;;;;103.03;19.70;;;5.40;99.90;;;;;;5023937;28;20045;-47
2022/01/13 10:33:24;;;;;;;93.10;20.05;;;5.40;99.90;;;;;;5015062;28;20052;-48
2022/01/13 10:35:52;;;;;;;83.47;19.33;;;5.40;99.90;;;;;;5015711;28;20045;-49
2022/01/13 10:38:18;;;;;;;112.85;20.00;;;5.40;99.90;;;;;;5033657;28;20540;-47
2022/01/13 10:40:47;;;;;;;93.10;19.67;;;5.40;99.90;;;;;;5015487;28;20041;-47
2022/01/13 10:43:15;;;;;;;106.35;19.60;;;5.50;99.90;;;;;;5033344;28;20382;-48
2022/01/13 10:45:44;;;;;;;103.95;19.60;;;5.50;99.90;;;;;;5033435;28;20044;-48
2022/01/13 10:48:26;;;;;;;111.43;19.95;;;5.60;99.90;;;;;;5033659;28;20045;-49
2022/01/13 10:50:56;;;;;;;126.22;20.63;;;5.50;99.90;;;;;;5032923;28;20533;-47
2022/01/13 10:53:28;;;;;;;85.10;19.20;;;5.50;99.90;;;;;;5033166;28;20045;-52
2022/01/13 10:56:06;;;;;;;116.32;20.27;;;5.60;99.90;;;;;;4999032;28;20045;-52
2022/01/13 10:58:37;;;;;;;102.00;19.85;;;5.60;99.90;;;;;;5033105;28;20049;-50
2022/01/13 11:01:04;;;;;;;92.07;19.73;;;5.50;99.90;;;;;;5032966;28;20410;-50
2022/01/13 11:03:33;;;;;;;96.30;20.58;;;5.60;99.90;;;;;;5015213;28;20049;-47
2022/01/13 11:06:05;;;;;;;92.05;20.05;;;5.60;99.90;;;;;;5033072;28;20116;-49
2022/01/13 11:08:38;;;;;;;88.30;18.88;;;5.60;99.90;;;;;;5032864;28;20538;-48
2022/01/13 11:11:04;;;;;;;101.25;20.02;;;5.60;99.90;;;;;;5017788;28;20502;-51
2022/01/13 11:13:36;;;;;;;79.93;18.65;;;5.60;99.90;;;;;;5012718;28;20137;-48
2022/01/13 11:16:01;;;;;;;73.60;18.42;;;5.60;99.90;;;;;;5013137;28;20077;-48
2022/01/13 11:18:30;;;;;;;95.00;19.15;;;5.60;99.90;;;;;;5012957;28;20507;-49
2022/01/13 11:20:57;;;;;;;75.88;19.40;;;5.60;99.90;;;;;;5012869;28;20038;-48
2022/01/13 11:23:24;;;;;;;94.68;20.33;;;5.60;99.90;;;;;;5012663;28;20084;-52
2022/01/13 11:25:52;;;;;;;88.75;20.85;;;5.60;99.90;;;;;;5012812;28;20061;-50
2022/01/13 11:28:18;;;;;;;65.82;17.58;;;5.60;99.90;;;;;;4978860;28;20042;-50
2022/01/13 11:30:46;;;;;;;82.00;21.33;;;5.60;99.90;;;;;;4995439;28;20042;-50
2022/01/13 11:33:12;;;;;;;89.70;20.88;;;5.60;99.90;;;;;;4978841;28;20045;-47
2022/01/13 11:35:42;;;;;;;91.40;21.45;;;5.60;99.90;;;;;;5012738;28;20038;-48
2022/01/13 11:38:08;;;;;;;96.90;20.50;;;5.60;99.90;;;;;;5020663;28;20053;-48
2022/01/13 11:40:37;;;;;;;98.35;21.55;;;5.60;99.90;;;;;;5030711;28;20405;-49
2022/01/13 11:43:05;;;;;;;85.70;20.52;;;5.60;99.90;;;;;;5031731;28;20152;-52
2022/01/13 11:45:38;;;;;;;106.85;21.08;;;5.60;99.90;;;;;;5032503;28;20393;-51
2022/01/13 11:48:23;;;;;;;105.20;22.65;;;5.60;99.90;;;;;;5014555;28;20038;-51
2022/01/13 11:50:55;;;;;;;101.57;20.90;;;5.60;99.90;;;;;;5014251;28;20056;-50
2022/01/13 11:53:32;;;;;;;93.75;21.60;;;5.70;99.90;;;;;;5014275;28;20045;-48
2022/01/13 11:56:08;;;;;;;87.65;19.05;;;5.60;99.90;;;;;;5001325;28;20494;-54
2022/01/13 11:58:42;;;;;;;94.03;20.80;;;5.60;99.90;;;;;;5031989;28;20046;-52
2022/01/13 12:01:30;;;;;;;98.00;20.88;;;5.60;99.90;;;;;;5031743;28;20106;-54
2022/01/13 12:03:58;;;;;;;90.07;22.15;;;5.60;99.90;;;;;;5031522;28;20041;-53
2022/01/13 12:06:35;;;;;;;111.13;21.00;;;5.60;99.90;;;;;;5031966;28;20164;-54
2022/01/13 12:09:10;;;;;;;84.72;21.38;;;5.60;99.90;;;;;;5032126;28;20169;-55
2022/01/13 12:11:41;;;;;;;90.78;21.00;;;5.60;99.90;;;;;;5031616;28;20084;-54
2022/01/13 12:14:27;;;;;;;92.53;21.25;;;5.60;99.90;;;;;;5031470;28;20049;-54
2022/01/13 12:16:53;;;;;;;86.85;20.10;;;5.60;99.90;;;;;;5031788;28;20052;-53
2022/01/13 12:19:32;;;;;;;80.40;21.52;;;5.60;99.90;;;;;;5031516;28;20037;-54
2022/01/13 12:22:04;;;;;;;80.82;21.40;;;5.60;99.90;;;;;;5031516;28;20065;-55
2022/01/13 12:24:48;;;;;;;81.78;21.20;;;5.60;99.90;;;;;;5031533;28;20034;-54
2022/01/13 12:27:15;;;;;;;77.18;20.20;;;5.70;99.90;;;;;;5031944;28;20464;-53
2022/01/13 12:29:50;;;;;;;81.13;20.50;;;5.70;99.90;;;;;;5013788;28;20046;-54
2022/01/13 12:32:43;;;;;;;79.15;20.60;;;5.70;99.90;;;;;;5031208;28;20057;-54
2022/01/13 12:35:10;;;;;;;;;;;5.70;99.90;;;;;;5031784;28;20049;-51
2022/01/13 12:37:39;;;;;;;77.50;21.02;;;5.70;99.90;;;;;;5031716;28;19923;-54
2022/01/13 12:40:20;;;;;;;72.18;20.08;;;5.70;99.90;;;;;;4997345;28;20543;-53
2022/01/13 12:42:52;;;;;;;71.72;19.95;;;5.70;99.90;;;;;;5031224;28;20041;-54
2022/01/13 12:45:28;;;;;;;79.28;21.85;;;5.70;99.90;;;;;;5031417;28;20049;-54
2022/01/13 12:47:55;;;;;;;76.93;22.90;;;5.70;99.90;;;;;;5031587;28;20042;-54
2022/01/13 12:50:25;;;;;;;67.13;20.15;;;5.70;99.90;;;;;;5031445;28;20331;-54
2022/01/13 12:52:57;;;;;;;83.38;21.10;;;5.70;99.90;;;;;;5013412;28;20561;-55
2022/01/13 12:55:23;;;;;;;91.13;22.35;;;5.80;99.90;;;;;;5033459;28;20081;-54
2022/01/13 12:57:53;;;;;;;81.30;21.85;;;5.80;99.90;;;;;;5035231;28;20148;-54
2022/01/13 13:00:22;;;;;;;81.47;21.67;;;5.80;99.90;;;;;;5001845;28;20504;-54